Time,TemperatureF,DewpointF,PressureIn,WindDirection,WindDirectionDegrees,WindSpeedMPH,WindSpeedGustMPH,Humidity,HourlyPrecipIn,Conditions,Clouds,dailyrainin,SoftwareType,DateUTC
2013-07-12 00:00:00,72.6,66.8,29.90,NW,319,1.0,3.0,82,0.00,CLR,FEW,0.00,WeatherDisplay:10.37,2013-07-11 22:00:00,
2013-07-12 01:00:00,72.2,65.7,29.89,NNE,14,1.0,5.0,80,0.00,CLR,FEW,0.00,WeatherDisplay:10.37,2013-07-11 23:00:00,
2013-07-12 02:00:00,71.2,65.8,29.88,NW,320,1.0,3.0,83,0.00,CLR,FEW,0.00,WeatherDisplay:10.37,2013-07-12 00:00:00,
2013-07-12 03:00:00,69.8,65.1,29.88,NW,323,2.0,3.0,85,0.00,CLR,FEW,0.00,WeatherDisplay:10.37,2013-07-12 01:00:00,
2013-07-12 04:00:00,69.9,65.2,29.89,NW,321,2.0,4.0,85,0.00,CLR,FEW,0.00,WeatherDisplay:10.37,2013-07-12 02:00:00,
2013-07-12 05:00:00,70.9,64.8,29.91,NNW,338,2.0,5.0,81,0.00,CLR,FEW,0.00,WeatherDisplay:10.37,2013-07-12 03:00:00,
2013-07-12 06:00:00,72.9,66.0,29.92,WNW,285,0.0,4.0,79,0.00,CLR,FEW,0.00,WeatherDisplay:10.37,2013-07-12 04:00:00,
2013-07-12 07:00:00,76.2,68.5,29.93,WSW,258,1.0,3.0,77,0.00,CLR,FEW,0.00,WeatherDisplay:10.37,2013-07-12 05:00:00,
2013-07-12 08:00:00,80.3,69.6,29.93,SW,227,0.0,4.0,70,0.00,CLR,FEW,0.00,WeatherDisplay:10.37,2013-07-12 06:00:00,
2013-07-12 09:00:00,83.1,69.7,29.94,SSW,211,1.0,6.0,64,0.00,CLR,FEW,0.00,WeatherDisplay:10.37,2013-07-12 07:00:00,
2013-07-12 10:00:00,85.1,68.2,29.94,WSW,237,1.0,7.0,57,0.00,CLR,FEW,0.00,WeatherDisplay:10.37,2013-07-12 08:00:00,
2013-07-12 11:00:00,85.4,69.5,29.94,WSW,237,5.0,10.0,59,0.00,CLR,FEW,0.00,WeatherDisplay:10.37,2013-07-12 09:00:00,
2013-07-12 12:00:00,86.8,69.8,29.93,SW,216,1.0,9.0,57,0.00,CLR,FEW,0.00,WeatherDisplay:10.37,2013-07-12 10:00:00,
2013-07-12 13:00:00,86.8,70.2,29.92,WSW,251,2.0,12.0,58,0.00,CLR,FEW,0.00,WeatherDisplay:10.37,2013-07-12 11:00:00,
2013-07-12 14:00:00,86.0,68.0,29.91,South,188,2.0,12.0,55,0.00,CLR,FEW,0.00,WeatherDisplay:10.37,2013-07-12 12:00:00,
2013-07-12 15:00:00,86.0,69.0,29.90,SW,233,2.0,12.0,57,0.00,CLR,FEW,0.00,WeatherDisplay:10.37,2013-07-12 13:00:00,
2013-07-12 16:00:00,85.6,70.1,29.91,SW,234,2.0,10.0,60,0.00,CLR,FEW,0.00,WeatherDisplay:10.37,2013-07-12 14:00:00,
2013-07-12 17:00:00,82.4,69.0,29.93,SW,235,3.0,9.0,64,0.00,CLR,FEW,0.00,WeatherDisplay:10.37,2013-07-12 15:00:00,
2013-07-12 18:00:00,79.7,68.2,29.95,NW,325,1.0,7.0,68,0.00,CLR,FEW,0.00,WeatherDisplay:10.37,2013-07-12 16:00:00,
2013-07-12 20:00:00,74.8,66.7,29.96,NW,318,2.0,6.0,76,0.00,CLR,FEW,0.00,WeatherDisplay:10.37,2013-07-12 18:00:00,
2013-07-12 21:00:00,74.5,66.4,29.97,NW,316,1.0,5.0,76,0.00,CLR,FEW,0.00,WeatherDisplay:10.37,2013-07-12 19:00:00,
2013-07-12 22:00:00,73.2,65.9,29.97,NW,320,2.0,5.0,78,0.00,CLR,FEW,0.00,WeatherDisplay:10.37,2013-07-12 20:00:00,
2013-07-12 23:00:00,72.6,66.1,29.97,NNW,337,1.0,4.0,80,0.00,CLR,FEW,0.00,WeatherDisplay:10.37,2013-07-12 21:00:00,